createdAt,value
2023-01-18T00:02:15.128Z,6.20
2023-01-18T00:04:43.082Z,6.57
2023-01-18T00:07:11.569Z,6.40
2023-01-18T00:09:41.736Z,6.82
2023-01-18T00:12:09.384Z,7.72
2023-01-18T00:14:37.099Z,6.55
2023-01-18T00:17:07.237Z,6.78
2023-01-18T00:19:36.276Z,6.00
2023-01-18T00:22:03.969Z,6.00
2023-01-18T00:24:31.646Z,6.90
2023-01-18T00:26:59.356Z,7.65
2023-01-18T00:29:27.240Z,7.93
2023-01-18T00:31:55.241Z,6.50
2023-01-18T00:34:23.059Z,6.95
2023-01-18T00:36:52.072Z,6.10
2023-01-18T00:39:19.812Z,9.32
2023-01-18T00:42:01.448Z,5.35
2023-01-18T00:44:29.149Z,6.32
2023-01-18T00:46:56.883Z,6.45
2023-01-18T00:49:24.859Z,5.20
2023-01-18T00:51:56.398Z,7.07
2023-01-18T00:54:25.950Z,5.80
2023-01-18T00:56:53.653Z,5.40
2023-01-18T00:59:21.352Z,4.75
2023-01-18T01:01:49.270Z,3.53
2023-01-18T01:04:31.135Z,5.03
2023-01-18T01:07:00.150Z,5.25
2023-01-18T01:09:30.324Z,4.85
2023-01-18T01:12:12.618Z,4.85
2023-01-18T01:14:56.498Z,4.30
2023-01-18T01:17:38.230Z,5.18
2023-01-18T01:20:20.924Z,5.25
2023-01-18T01:23:04.625Z,5.30
2023-01-18T01:25:46.325Z,4.78
2023-01-18T01:28:13.993Z,4.38
2023-01-18T01:30:41.739Z,4.50
2023-01-18T01:33:09.456Z,4.13
2023-01-18T01:35:37.149Z,5.53
2023-01-18T01:38:08.340Z,5.25
2023-01-18T01:40:36.018Z,5.70
2023-01-18T01:43:03.805Z,6.22
2023-01-18T01:45:33.658Z,6.45
2023-01-18T01:48:01.652Z,6.13
2023-01-18T01:50:33.699Z,7.45
2023-01-18T01:53:01.402Z,7.32
2023-01-18T01:55:32.499Z,7.03
2023-01-18T01:58:04.189Z,6.20
2023-01-18T02:00:33.180Z,6.30
2023-01-18T02:03:02.814Z,6.50
2023-01-18T02:05:34.767Z,7.00
2023-01-18T02:08:03.860Z,6.97
2023-01-18T02:10:32.916Z,7.32
2023-01-18T02:13:01.354Z,9.32
2023-01-18T02:15:37.489Z,6.60
2023-01-18T02:18:16.792Z,7.55
2023-01-18T02:21:14.331Z,6.32
2023-01-18T02:24:10.043Z,6.15
2023-01-18T02:26:56.012Z,6.03
2023-01-18T02:29:45.462Z,6.15
2023-01-18T02:32:24.985Z,5.55
2023-01-18T02:35:00.078Z,5.75
2023-01-18T02:37:37.877Z,5.60
2023-01-18T02:40:16.464Z,5.03
2023-01-18T02:43:00.076Z,6.55
2023-01-18T02:45:47.897Z,6.60
2023-01-18T02:48:16.339Z,4.80
2023-01-18T02:50:44.050Z,5.32
2023-01-18T02:53:14.513Z,5.97
2023-01-18T02:55:46.792Z,5.63
2023-01-18T02:58:21.721Z,6.05
2023-01-18T03:00:56.264Z,5.57
2023-01-18T03:03:25.764Z,4.10
2023-01-18T03:05:58.501Z,4.40
2023-01-18T03:08:33.149Z,5.25
2023-01-18T03:11:06.229Z,5.03
2023-01-18T03:13:49.708Z,4.95
2023-01-18T03:16:23.631Z,5.13
2023-01-18T03:19:04.074Z,5.35
2023-01-18T03:21:38.278Z,5.22
2023-01-18T03:24:07.875Z,5.07
2023-01-18T03:26:40.633Z,5.75
2023-01-18T03:29:22.755Z,5.05
2023-01-18T03:32:09.445Z,5.15
2023-01-18T03:34:43.555Z,4.45
2023-01-18T03:37:15.528Z,4.43
2023-01-18T03:39:46.418Z,3.55
2023-01-18T03:42:17.785Z,3.90
2023-01-18T03:44:51.720Z,4.10
2023-01-18T03:47:21.417Z,3.38
2023-01-18T03:49:49.507Z,4.35
2023-01-18T03:52:23.357Z,4.70
2023-01-18T03:55:00.202Z,5.65
2023-01-18T03:57:33.945Z,5.25
2023-01-18T04:00:06.021Z,6.03
2023-01-18T04:03:06.694Z,6.63
2023-01-18T04:05:35.196Z,7.32
2023-01-18T04:08:03.015Z,5.43
2023-01-18T04:10:30.744Z,9.05
2023-01-18T04:12:58.907Z,7.43
2023-01-18T04:15:26.851Z,7.05
2023-01-18T04:17:55.768Z,7.80
2023-01-18T04:20:25.153Z,7.80
2023-01-18T04:22:53.248Z,6.95
2023-01-18T04:25:21.717Z,7.00
2023-01-18T04:27:49.583Z,8.45
2023-01-18T04:30:17.945Z,8.65
2023-01-18T04:32:46.200Z,7.60
2023-01-18T04:35:14.553Z,7.70
2023-01-18T04:37:43.590Z,7.43
2023-01-18T04:40:12.184Z,7.10
2023-01-18T04:42:39.856Z,7.93
2023-01-18T04:45:08.480Z,8.50
2023-01-18T04:47:36.296Z,7.78
2023-01-18T04:50:04.076Z,7.97
2023-01-18T04:52:33.260Z,6.75
2023-01-18T04:55:02.285Z,6.57
2023-01-18T04:57:30.065Z,6.65
2023-01-18T04:59:57.873Z,7.55
2023-01-18T05:02:25.569Z,6.53
2023-01-18T05:04:53.352Z,7.55
2023-01-18T05:07:21.031Z,7.32
2023-01-18T05:09:48.755Z,6.32
2023-01-18T05:12:17.749Z,7.20
2023-01-18T05:14:45.467Z,7.18
2023-01-18T05:17:13.165Z,7.70
2023-01-18T05:19:41.066Z,6.95
2023-01-18T05:22:08.943Z,7.40
2023-01-18T05:24:36.656Z,7.80
2023-01-18T05:27:04.462Z,6.85
2023-01-18T05:29:33.800Z,7.10
2023-01-18T05:32:01.540Z,6.72
2023-01-18T05:34:29.508Z,9.52
2023-01-18T05:36:57.225Z,8.43
2023-01-18T05:39:25.124Z,6.82
2023-01-18T05:41:52.900Z,7.75
2023-01-18T05:44:20.533Z,9.13
2023-01-18T05:46:49.544Z,8.80
2023-01-18T05:49:17.271Z,9.70
2023-01-18T05:51:44.986Z,8.95
2023-01-18T05:54:13.193Z,9.55
2023-01-18T05:56:42.025Z,7.60
2023-01-18T05:59:10.402Z,10.20
2023-01-18T06:01:38.131Z,9.20
2023-01-18T06:04:07.261Z,7.78
2023-01-18T06:06:34.976Z,8.60
2023-01-18T06:09:03.285Z,8.75
2023-01-18T06:11:31.048Z,8.55
2023-01-18T06:13:58.729Z,10.43
2023-01-18T06:16:26.870Z,9.10
2023-01-18T06:18:54.613Z,8.80
2023-01-18T06:21:23.615Z,9.43
2023-01-18T06:23:51.552Z,9.40
2023-01-18T06:26:19.237Z,9.85
2023-01-18T06:28:46.953Z,9.80
2023-01-18T06:31:14.662Z,10.90
2023-01-18T06:33:42.376Z,9.23
2023-01-18T06:36:10.227Z,9.70
2023-01-18T06:38:39.304Z,10.10
2023-01-18T06:41:07.069Z,10.25
2023-01-18T06:43:34.873Z,10.32
2023-01-18T06:46:02.691Z,9.80
2023-01-18T06:48:30.392Z,9.38
2023-01-18T06:50:58.909Z,9.88
2023-01-18T06:53:27.396Z,11.73
2023-01-18T06:55:58.835Z,10.48
2023-01-18T06:58:27.681Z,9.48
2023-01-18T07:00:56.562Z,8.95
2023-01-18T07:03:24.772Z,8.65
2023-01-18T07:05:54.202Z,8.35
2023-01-18T07:08:22.108Z,8.75
2023-01-18T07:10:52.421Z,8.52
2023-01-18T07:13:22.213Z,7.95
2023-01-18T07:15:56.396Z,8.35
2023-01-18T07:18:24.273Z,7.40
2023-01-18T07:20:58.064Z,7.10
2023-01-18T07:23:26.457Z,7.32
2023-01-18T07:26:02.747Z,5.85
2023-01-18T07:28:32.806Z,6.32
2023-01-18T07:31:01.022Z,6.32
2023-01-18T07:33:29.263Z,6.50
2023-01-18T07:35:58.280Z,7.57
2023-01-18T07:38:27.364Z,7.90
2023-01-18T07:41:02.066Z,7.18
2023-01-18T07:43:33.189Z,6.43
2023-01-18T07:46:06.196Z,7.97
2023-01-18T07:48:34.534Z,6.38
2023-01-18T07:51:04.450Z,8.05
2023-01-18T07:53:36.317Z,6.55
2023-01-18T07:56:06.521Z,7.30
2023-01-18T07:58:36.007Z,7.18
2023-01-18T08:01:05.755Z,6.10
2023-01-18T08:03:33.906Z,7.18
2023-01-18T08:06:02.341Z,6.50
2023-01-18T08:08:31.474Z,6.07
2023-01-18T08:11:00.629Z,6.55
2023-01-18T08:13:29.098Z,6.20
2023-01-18T08:16:01.288Z,5.90
2023-01-18T08:18:29.569Z,5.82
2023-01-18T08:21:02.571Z,6.28
2023-01-18T08:23:30.504Z,6.60
2023-01-18T08:26:02.098Z,6.00
2023-01-18T08:28:29.840Z,4.43
2023-01-18T08:31:10.070Z,6.88
2023-01-18T08:33:39.813Z,5.57
2023-01-18T08:36:11.404Z,5.82
2023-01-18T08:38:39.163Z,5.05
2023-01-18T08:41:07.330Z,5.53
2023-01-18T08:43:35.708Z,6.05
2023-01-18T08:46:03.468Z,5.85
2023-01-18T08:48:32.658Z,6.05
2023-01-18T08:51:02.471Z,5.55
2023-01-18T08:53:30.532Z,5.80
2023-01-18T08:55:58.957Z,5.97
2023-01-18T08:58:31.839Z,5.75
2023-01-18T09:01:00.775Z,6.00
2023-01-18T09:03:29.716Z,6.13
2023-01-18T09:06:00.749Z,5.57
2023-01-18T09:08:28.797Z,4.40
2023-01-18T09:11:02.984Z,3.42
2023-01-18T09:13:33.144Z,5.30
2023-01-18T09:16:01.816Z,4.50
2023-01-18T09:18:32.277Z,4.03
2023-01-18T09:21:06.603Z,4.20
2023-01-18T09:23:35.259Z,4.07
2023-01-18T09:26:04.774Z,4.25
2023-01-18T09:28:34.548Z,4.95
2023-01-18T09:31:08.932Z,4.43
2023-01-18T09:33:38.193Z,4.70
2023-01-18T09:36:15.511Z,5.30
2023-01-18T09:38:45.657Z,3.95
2023-01-18T09:41:26.996Z,4.38
2023-01-18T09:43:58.173Z,4.85
2023-01-18T09:46:29.256Z,3.92
2023-01-18T09:49:01.772Z,4.75
2023-01-18T09:51:34.406Z,4.68
2023-01-18T09:54:15.612Z,3.90
2023-01-18T09:56:50.266Z,5.35
2023-01-18T09:59:22.505Z,4.63
2023-01-18T10:01:53.895Z,4.13
2023-01-18T10:04:30.380Z,5.25
2023-01-18T10:07:02.556Z,4.75
2023-01-18T10:09:35.163Z,6.10
2023-01-18T10:12:09.717Z,5.40
2023-01-18T10:14:45.057Z,5.55
2023-01-18T10:17:18.686Z,4.55
2023-01-18T10:19:46.438Z,5.72
2023-01-18T10:22:21.745Z,4.57
2023-01-18T10:24:57.295Z,5.22
2023-01-18T10:27:42.182Z,5.75
2023-01-18T10:30:32.264Z,5.28
2023-01-18T10:33:03.039Z,4.72
2023-01-18T10:35:32.796Z,5.63
2023-01-18T10:38:05.169Z,4.95
2023-01-18T10:40:34.527Z,4.70
2023-01-18T10:43:04.473Z,4.60
2023-01-18T10:45:38.769Z,4.80
2023-01-18T10:48:25.618Z,5.35
2023-01-18T10:50:55.091Z,4.60
2023-01-18T10:53:28.217Z,5.55
2023-01-18T10:55:59.323Z,4.70
2023-01-18T10:58:31.866Z,5.30
2023-01-18T11:01:02.363Z,4.78
2023-01-18T11:03:34.992Z,5.25
2023-01-18T11:06:08.084Z,5.55
2023-01-18T11:08:37.616Z,5.28
2023-01-18T11:11:07.808Z,4.97
2023-01-18T11:13:42.434Z,6.45
2023-01-18T11:16:13.606Z,4.90
2023-01-18T11:18:59.295Z,4.63
2023-01-18T11:21:31.435Z,4.20
2023-01-18T11:24:07.721Z,4.05
2023-01-18T11:26:36.124Z,4.35
2023-01-18T11:29:07.422Z,3.88
2023-01-18T11:31:46.391Z,4.50
2023-01-18T11:34:24.160Z,4.70
2023-01-18T11:36:51.889Z,4.45
2023-01-18T11:39:27.624Z,4.68
2023-01-18T11:42:11.886Z,4.35
2023-01-18T11:44:44.466Z,4.30
2023-01-18T11:47:21.609Z,4.32
2023-01-18T11:49:57.760Z,4.28
2023-01-18T11:52:42.635Z,4.82
2023-01-18T11:55:24.374Z,5.50
2023-01-18T11:57:54.232Z,4.95
2023-01-18T12:00:28.033Z,4.70
2023-01-18T12:03:20.821Z,4.88
2023-01-18T12:05:54.711Z,3.85
2023-01-18T12:08:41.100Z,4.15
2023-01-18T12:11:26.597Z,4.78
2023-01-18T12:14:01.324Z,4.88
2023-01-18T12:16:48.975Z,5.13
2023-01-18T12:19:38.233Z,4.40
2023-01-18T12:22:25.811Z,4.20
2023-01-18T12:25:08.091Z,3.85
2023-01-18T12:27:44.828Z,4.30
2023-01-18T12:30:26.079Z,3.38
2023-01-18T12:33:10.089Z,4.40
2023-01-18T12:35:56.081Z,3.45
2023-01-18T12:38:27.015Z,3.78
2023-01-18T12:41:18.427Z,3.63
2023-01-18T12:43:59.945Z,4.88
2023-01-18T12:46:33.593Z,4.45
2023-01-18T12:49:06.164Z,4.40
2023-01-18T12:51:38.167Z,4.30
2023-01-18T12:54:14.199Z,3.20
2023-01-18T12:56:45.046Z,3.33
2023-01-18T12:59:22.049Z,3.85
2023-01-18T13:01:56.179Z,3.60
2023-01-18T13:04:30.131Z,3.67
2023-01-18T13:07:07.124Z,3.00
2023-01-18T13:09:41.767Z,3.05
2023-01-18T13:12:10.223Z,4.10
2023-01-18T13:14:45.541Z,3.28
2023-01-18T13:17:19.132Z,2.90
2023-01-18T13:19:55.935Z,3.92
2023-01-18T13:22:31.553Z,3.33
2023-01-18T13:25:20.149Z,3.50
2023-01-18T13:27:59.818Z,6.03
2023-01-18T13:30:31.441Z,11.85
2023-01-18T13:33:12.456Z,8.18
2023-01-18T13:35:53.056Z,4.55
2023-01-18T13:38:40.235Z,3.90
2023-01-18T13:41:11.433Z,3.30
2023-01-18T13:44:09.098Z,4.18
2023-01-18T13:46:39.525Z,3.10
2023-01-18T13:49:37.666Z,3.40
2023-01-18T13:52:30.185Z,3.65
2023-01-18T13:55:03.729Z,2.78
2023-01-18T13:57:33.930Z,3.90
2023-01-18T14:00:02.363Z,3.83
2023-01-18T14:03:04.829Z,3.72
2023-01-18T14:05:38.191Z,3.80
2023-01-18T14:08:10.085Z,3.22
2023-01-18T14:10:40.787Z,5.20
2023-01-18T14:13:15.017Z,4.55
2023-01-18T14:15:51.936Z,4.30
2023-01-18T14:18:24.798Z,4.75
2023-01-18T14:21:08.834Z,4.93
2023-01-18T14:23:54.530Z,3.72
2023-01-18T14:26:23.494Z,4.03
2023-01-18T14:28:54.132Z,4.88
2023-01-18T14:31:27.665Z,4.72
2023-01-18T14:33:56.921Z,4.85
2023-01-18T14:36:26.528Z,4.07
2023-01-18T14:39:12.697Z,4.75
2023-01-18T14:41:43.168Z,4.25
2023-01-18T14:44:17.293Z,4.45
2023-01-18T14:46:50.608Z,5.07
2023-01-18T14:49:26.165Z,5.25
2023-01-18T14:51:54.667Z,5.32
2023-01-18T14:54:25.759Z,4.28
2023-01-18T14:57:01.588Z,4.40
2023-01-18T14:59:31.014Z,6.03
2023-01-18T15:02:02.969Z,5.95
2023-01-18T15:04:35.947Z,5.53
2023-01-18T15:07:08.235Z,5.40
2023-01-18T15:09:39.166Z,5.57
2023-01-18T15:12:11.358Z,5.53
2023-01-18T15:14:44.287Z,6.28
2023-01-18T15:17:21.195Z,4.32
2023-01-18T15:19:53.913Z,4.97
2023-01-18T15:22:27.563Z,5.05
2023-01-18T15:24:58.757Z,5.00
2023-01-18T15:27:29.466Z,5.75
2023-01-18T15:30:01.312Z,7.07
2023-01-18T15:32:32.389Z,5.60
2023-01-18T15:35:02.902Z,6.00
2023-01-18T15:37:33.531Z,5.20
2023-01-18T15:40:03.921Z,4.75
2023-01-18T15:42:36.804Z,4.40
2023-01-18T15:45:06.184Z,4.60
2023-01-18T15:47:36.901Z,4.40
2023-01-18T15:50:16.486Z,6.20
2023-01-18T15:52:46.889Z,5.05
2023-01-18T15:55:25.041Z,5.45
2023-01-18T15:57:58.949Z,4.40
2023-01-18T16:00:32.713Z,4.53
2023-01-18T16:03:01.699Z,4.80
2023-01-18T16:05:32.564Z,4.82
2023-01-18T16:08:18.211Z,5.22
2023-01-18T16:10:52.016Z,6.00
2023-01-18T16:13:32.789Z,4.40
2023-01-18T16:16:14.059Z,5.38
2023-01-18T16:18:44.635Z,5.57
2023-01-18T16:21:20.533Z,5.38
2023-01-18T16:23:50.273Z,5.28
2023-01-18T16:26:26.627Z,5.13
2023-01-18T16:28:54.591Z,7.15
2023-01-18T16:31:24.111Z,6.50
2023-01-18T16:33:52.089Z,6.32
2023-01-18T16:36:22.301Z,6.45
2023-01-18T16:38:53.359Z,6.65
2023-01-18T16:41:21.005Z,6.10
2023-01-18T16:43:48.773Z,7.05
2023-01-18T16:46:18.854Z,7.25
2023-01-18T16:48:46.618Z,6.15
2023-01-18T16:51:18.432Z,6.18
2023-01-18T16:53:49.337Z,6.38
2023-01-18T16:56:17.426Z,6.13
2023-01-18T16:58:45.076Z,7.07
2023-01-18T17:01:15.680Z,6.78
2023-01-18T17:03:43.716Z,6.95
2023-01-18T17:06:17.315Z,7.00
2023-01-18T17:08:47.642Z,8.45
2023-01-18T17:11:17.448Z,9.23
2023-01-18T17:13:47.520Z,7.82
2023-01-18T17:16:17.741Z,6.50
2023-01-18T17:18:45.609Z,6.45
2023-01-18T17:21:13.774Z,6.30
2023-01-18T17:23:41.487Z,8.57
2023-01-18T17:26:11.627Z,7.40
2023-01-18T17:28:40.648Z,8.55
2023-01-18T17:31:09.075Z,7.38
2023-01-18T17:33:39.089Z,8.43
2023-01-18T17:36:08.652Z,10.02
2023-01-18T17:38:36.900Z,9.07
2023-01-18T17:41:04.705Z,8.00
2023-01-18T17:43:34.744Z,8.82
2023-01-18T17:46:05.721Z,9.65
2023-01-18T17:48:33.691Z,9.30
2023-01-18T17:51:03.852Z,9.48
2023-01-18T17:53:32.859Z,9.70
2023-01-18T17:56:01.723Z,10.77
2023-01-18T17:58:29.436Z,8.75
2023-01-18T18:00:57.192Z,9.07
2023-01-18T18:03:28.644Z,9.50
2023-01-18T18:05:59.413Z,8.30
2023-01-18T18:08:27.163Z,9.27
2023-01-18T18:10:56.044Z,8.77
2023-01-18T18:13:24.272Z,8.95
2023-01-18T18:15:55.220Z,9.43
2023-01-18T18:18:26.069Z,9.52
2023-01-18T18:21:00.068Z,9.20
2023-01-18T18:23:29.186Z,7.97
2023-01-18T18:25:59.344Z,9.20
2023-01-18T18:28:29.472Z,8.20
2023-01-18T18:30:58.660Z,8.20
2023-01-18T18:33:27.584Z,9.57
2023-01-18T18:35:55.752Z,7.80
2023-01-18T18:38:27.110Z,7.90
2023-01-18T18:40:55.391Z,10.35
2023-01-18T18:43:24.412Z,8.88
2023-01-18T18:45:52.248Z,8.60
2023-01-18T18:48:20.019Z,8.02
2023-01-18T18:50:48.063Z,8.70
2023-01-18T18:53:16.921Z,7.72
2023-01-18T18:55:47.387Z,8.98
2023-01-18T18:58:15.131Z,8.32
2023-01-18T19:00:42.882Z,8.07
2023-01-18T19:03:11.070Z,9.13
2023-01-18T19:05:39.374Z,10.07
2023-01-18T19:08:09.665Z,8.48
2023-01-18T19:10:38.540Z,8.82
2023-01-18T19:13:07.554Z,9.27
2023-01-18T19:15:35.235Z,8.77
2023-01-18T19:18:03.098Z,9.10
2023-01-18T19:20:32.754Z,9.52
2023-01-18T19:23:02.162Z,10.48
2023-01-18T19:25:30.029Z,10.98
2023-01-18T19:27:57.873Z,11.98
2023-01-18T19:30:27.192Z,13.00
2023-01-18T19:32:54.911Z,11.60
2023-01-18T19:35:22.626Z,9.95
2023-01-18T19:37:50.480Z,10.57
2023-01-18T19:40:18.567Z,11.50
2023-01-18T19:42:54.105Z,11.13
2023-01-18T19:45:28.246Z,10.50
2023-01-18T19:47:59.736Z,15.02
2023-01-18T19:50:28.944Z,10.52
2023-01-18T19:52:57.158Z,12.90
2023-01-18T19:55:25.218Z,12.95
2023-01-18T19:58:00.961Z,12.10
2023-01-18T20:00:29.865Z,12.93
2023-01-18T20:03:00.918Z,11.18
2023-01-18T20:05:30.168Z,9.90
2023-01-18T20:07:59.168Z,11.10
2023-01-18T20:10:27.061Z,10.55
2023-01-18T20:12:55.900Z,9.85
2023-01-18T20:15:23.759Z,8.77
2023-01-18T20:17:51.554Z,10.80
2023-01-18T20:20:31.909Z,11.00
2023-01-18T20:23:03.647Z,11.23
2023-01-18T20:25:32.262Z,10.50
2023-01-18T20:27:59.993Z,9.90
2023-01-18T20:30:28.751Z,10.10
2023-01-18T20:32:56.442Z,9.23
2023-01-18T20:35:27.307Z,8.82
2023-01-18T20:37:55.276Z,8.40
2023-01-18T20:40:23.115Z,8.27
2023-01-18T20:42:50.917Z,9.10
2023-01-18T20:45:18.667Z,10.00
2023-01-18T20:47:46.325Z,8.93
2023-01-18T20:50:14.038Z,8.55
2023-01-18T20:52:44.508Z,9.43
2023-01-18T20:55:14.523Z,9.05
2023-01-18T20:57:44.766Z,9.52
2023-01-18T21:00:13.553Z,10.15
2023-01-18T21:02:42.274Z,9.68
2023-01-18T21:05:10.458Z,8.55
2023-01-18T21:07:39.388Z,10.48
2023-01-18T21:10:10.751Z,10.32
2023-01-18T21:12:38.533Z,10.50
2023-01-18T21:15:07.398Z,11.70
2023-01-18T21:17:35.226Z,11.30
2023-01-18T21:20:05.975Z,9.68
2023-01-18T21:22:33.670Z,9.88
2023-01-18T21:25:01.400Z,11.38
2023-01-18T21:27:32.941Z,11.05
2023-01-18T21:30:00.632Z,12.40
2023-01-18T21:32:28.509Z,13.65
2023-01-18T21:34:56.212Z,12.52
2023-01-18T21:37:23.930Z,10.73
2023-01-18T21:39:51.663Z,11.73
2023-01-18T21:42:33.363Z,13.10
2023-01-18T21:45:16.371Z,11.52
2023-01-18T21:47:44.130Z,12.35
2023-01-18T21:50:25.956Z,12.80
2023-01-18T21:53:07.617Z,11.80
2023-01-18T21:55:37.046Z,12.90
2023-01-18T21:58:18.713Z,13.20
2023-01-18T22:00:47.873Z,10.82
2023-01-18T22:03:18.262Z,10.07
2023-01-18T22:05:45.072Z,12.25
2023-01-18T22:08:12.757Z,12.13
2023-01-18T22:10:42.882Z,11.73
2023-01-18T22:13:10.542Z,12.02
2023-01-18T22:15:38.709Z,11.50
2023-01-18T22:18:07.756Z,12.40
2023-01-18T22:20:35.648Z,13.15
2023-01-18T22:23:03.299Z,11.27
2023-01-18T22:25:31.000Z,15.23
2023-01-18T22:27:58.928Z,12.13
2023-01-18T22:30:26.816Z,11.63
2023-01-18T22:32:55.719Z,11.68
2023-01-18T22:35:24.795Z,12.48
2023-01-18T22:37:52.484Z,13.35
2023-01-18T22:40:20.231Z,13.23
2023-01-18T22:42:47.940Z,12.05
2023-01-18T22:45:15.748Z,10.10
2023-01-18T22:47:43.501Z,11.07
2023-01-18T22:50:12.205Z,10.38
2023-01-18T22:52:41.355Z,11.65
2023-01-18T22:55:11.919Z,11.02
2023-01-18T22:57:39.583Z,11.40
2023-01-18T23:00:08.097Z,8.98
2023-01-18T23:02:37.274Z,10.05
2023-01-18T23:05:05.438Z,11.38
2023-01-18T23:07:33.157Z,11.13
2023-01-18T23:10:02.205Z,11.07
2023-01-18T23:12:29.900Z,9.75
2023-01-18T23:15:11.608Z,10.10
2023-01-18T23:17:39.296Z,11.63
2023-01-18T23:20:10.168Z,9.68
2023-01-18T23:22:39.078Z,8.85
2023-01-18T23:25:08.695Z,10.52
2023-01-18T23:27:36.383Z,8.82
2023-01-18T23:30:04.494Z,9.95
2023-01-18T23:32:36.806Z,10.38
2023-01-18T23:35:05.628Z,9.35
2023-01-18T23:37:33.434Z,9.57
2023-01-18T23:40:15.279Z,9.70
2023-01-18T23:42:58.665Z,9.63
2023-01-18T23:45:40.360Z,9.13
2023-01-18T23:48:23.161Z,7.82
2023-01-18T23:51:04.803Z,7.13
2023-01-18T23:53:47.717Z,8.63
2023-01-18T23:56:15.400Z,6.60
2023-01-18T23:58:44.412Z,6.38
